createdAt,value
2018-08-03T09:23:41.976Z,27.97
2018-08-03T09:24:41.966Z,27.90
2018-08-03T09:25:41.870Z,27.82
2018-08-03T09:26:41.811Z,27.78
2018-08-03T09:27:41.757Z,27.82
2018-08-03T09:28:41.729Z,27.82
2018-08-03T09:29:41.657Z,27.78
2018-08-03T09:30:51.732Z,27.88
2018-08-03T09:31:51.682Z,27.88
2018-08-03T09:32:51.670Z,27.88
2018-08-03T09:33:51.679Z,27.90
2018-08-03T09:34:51.646Z,27.99
2018-08-03T09:35:51.638Z,27.88
2018-08-03T09:36:51.627Z,27.90
2018-08-03T09:37:51.615Z,28.07
2018-08-03T09:38:51.630Z,28.25
2018-08-03T09:39:51.592Z,28.25
2018-08-03T10:03:02.806Z,30.04
2018-08-03T10:04:02.770Z,32.35
2018-08-03T10:05:02.761Z,34.03
2018-08-03T10:06:02.749Z,35.40
2018-08-03T10:07:02.762Z,36.41
2018-08-03T10:08:02.730Z,37.18
2018-08-03T10:09:02.722Z,37.84
2018-08-03T10:10:02.710Z,38.57
2018-08-03T10:11:02.699Z,38.75
2018-08-03T10:12:02.721Z,39.25
2018-08-03T10:13:02.689Z,39.48
2018-08-03T10:14:02.704Z,38.87
2018-08-03T10:15:02.667Z,39.01
2018-08-03T10:16:02.657Z,39.75
2018-08-03T10:17:02.671Z,40.20
2018-08-03T10:18:02.642Z,40.46
2018-08-03T10:19:02.636Z,39.92
2018-08-03T10:20:02.629Z,40.23
2018-08-03T10:21:02.619Z,40.65
2018-08-03T10:22:02.627Z,41.08
2018-08-03T10:23:02.606Z,41.26
2018-08-03T10:24:02.629Z,41.51
2018-08-03T10:25:02.593Z,41.47
2018-08-03T10:26:02.602Z,41.13
2018-08-03T10:27:02.599Z,40.43
2018-08-03T10:28:02.580Z,39.14
2018-08-03T10:29:02.562Z,38.50
2018-08-03T10:30:02.565Z,38.54
2018-08-03T10:31:02.582Z,38.81
2018-08-03T10:32:02.542Z,39.16
2018-08-03T10:33:02.533Z,38.79
2018-08-03T10:34:02.530Z,38.75
2018-08-03T10:35:02.532Z,38.47
2018-08-03T10:36:02.555Z,37.02
2018-08-03T10:37:02.506Z,37.09
2018-08-03T10:38:02.503Z,37.57
2018-08-03T10:39:02.516Z,37.07
2018-08-03T10:40:02.486Z,36.28
2018-08-03T10:41:02.512Z,36.66
2018-08-03T10:42:02.504Z,36.72
2018-08-03T10:43:02.492Z,36.65
2018-08-03T10:44:02.458Z,36.32
2018-08-03T10:45:02.452Z,35.75
2018-08-03T10:46:02.444Z,35.48
2018-08-03T10:47:02.520Z,35.77
2018-08-03T10:48:02.452Z,36.00
2018-08-03T10:49:02.418Z,35.90
2018-08-03T10:50:02.410Z,35.77
2018-08-03T10:51:02.403Z,35.56
2018-08-03T10:52:02.391Z,35.55
2018-08-03T10:53:02.415Z,35.28
2018-08-03T10:54:02.376Z,35.10
2018-08-03T10:55:02.370Z,35.09
2018-08-03T10:56:02.359Z,34.99
2018-08-03T10:57:02.350Z,34.72
2018-08-03T10:58:02.361Z,34.66
2018-08-03T10:59:02.370Z,34.73
2018-08-03T11:00:02.318Z,34.91
2018-08-03T11:01:02.310Z,35.07
2018-08-03T11:02:02.305Z,35.38
2018-08-03T11:03:02.291Z,35.59
2018-08-03T11:04:02.315Z,35.68
2018-08-03T11:05:02.273Z,35.58
2018-08-03T11:06:02.263Z,35.52
2018-08-03T11:07:02.252Z,35.77
2018-08-03T11:08:02.245Z,35.78
2018-08-03T11:09:02.262Z,35.72
2018-08-03T11:10:02.225Z,35.60
2018-08-03T11:11:02.215Z,35.25
2018-08-03T11:12:02.205Z,34.91
2018-08-03T11:13:02.196Z,34.54
2018-08-03T11:14:02.284Z,34.88
2018-08-03T11:15:02.173Z,35.06
2018-08-03T11:16:02.168Z,35.36
2018-08-03T11:17:02.161Z,35.00
2018-08-03T11:18:02.144Z,35.04
2018-08-03T11:19:02.164Z,35.07
2018-08-03T11:20:02.125Z,35.23
2018-08-03T11:21:02.115Z,35.00
2018-08-03T11:22:02.105Z,34.43
2018-08-03T11:23:02.095Z,33.98
2018-08-03T11:24:02.210Z,33.63
2018-08-03T11:25:02.098Z,33.50
2018-08-03T11:26:02.070Z,33.69
2018-08-03T11:27:02.077Z,34.09
2018-08-03T11:28:02.046Z,34.54
2018-08-03T11:29:02.038Z,34.81
2018-08-03T11:30:02.030Z,35.07
2018-08-03T11:31:02.042Z,35.34
2018-08-03T11:32:02.011Z,35.59
2018-08-03T11:33:01.999Z,35.43
2018-08-03T11:34:02.011Z,34.91
2018-08-03T11:35:02.034Z,34.54
2018-08-03T11:36:01.972Z,34.91
2018-08-03T11:37:01.992Z,35.10
2018-08-03T11:38:01.948Z,35.11
2018-08-03T11:39:01.936Z,35.19
2018-08-03T11:40:01.933Z,35.33
2018-08-03T11:41:01.918Z,35.23
2018-08-03T11:42:01.968Z,35.48
2018-08-03T11:43:01.904Z,35.68
2018-08-03T11:44:01.889Z,35.77
2018-08-03T11:45:01.878Z,35.93
2018-08-03T11:46:02.000Z,35.63
2018-08-03T11:47:01.857Z,35.23
2018-08-03T11:48:01.851Z,34.97
2018-08-03T11:49:01.843Z,34.13
2018-08-03T11:50:01.830Z,33.87
2018-08-03T11:51:01.849Z,33.51
2018-08-03T11:52:01.809Z,33.21
2018-08-03T11:53:01.800Z,33.14
2018-08-03T11:54:01.836Z,33.22
2018-08-03T11:55:01.778Z,33.79
2018-08-03T11:56:01.787Z,34.27
2018-08-03T11:57:01.755Z,34.46
2018-08-03T11:58:01.745Z,34.53
2018-08-03T11:59:01.736Z,34.06
2018-08-03T12:00:01.753Z,33.86
2018-08-03T12:01:01.718Z,34.28
2018-08-03T12:02:01.800Z,34.65
2018-08-03T12:03:01.697Z,35.02
2018-08-03T12:04:01.691Z,35.14
2018-08-03T12:05:01.677Z,35.43
2018-08-03T12:06:01.693Z,35.55
2018-08-03T12:07:01.658Z,34.84
2018-08-03T12:08:01.647Z,34.34
2018-08-03T12:09:01.639Z,34.08
2018-08-03T12:10:01.629Z,34.05
2018-08-03T12:11:01.639Z,34.64
2018-08-03T12:12:01.610Z,34.99
2018-08-03T12:13:01.601Z,35.23
2018-08-03T12:14:01.616Z,35.37
2018-08-03T12:15:01.582Z,35.58
2018-08-03T12:16:01.572Z,35.77
2018-08-03T12:17:01.558Z,35.80
2018-08-03T12:18:01.661Z,35.68
2018-08-03T12:19:01.540Z,35.80
2018-08-03T12:20:01.529Z,35.85
2018-08-03T12:21:01.521Z,35.75
2018-08-03T12:22:01.514Z,35.75
2018-08-03T12:23:01.523Z,35.84
2018-08-03T12:24:01.495Z,35.66
2018-08-03T12:25:01.481Z,35.87
2018-08-03T12:26:01.468Z,35.89
2018-08-03T12:27:01.497Z,35.85
2018-08-03T12:28:01.448Z,35.84
2018-08-03T12:29:01.455Z,35.92
2018-08-03T12:30:01.433Z,35.92
2018-08-03T12:31:01.424Z,36.08
2018-08-03T12:32:01.440Z,36.27
2018-08-03T12:33:01.407Z,36.39
2018-08-03T12:34:02.962Z,36.25
2018-08-03T12:35:01.381Z,36.35
2018-08-03T12:36:01.371Z,36.39
2018-08-03T12:37:01.423Z,37.29
2018-08-03T12:38:01.359Z,38.50
2018-08-03T12:39:01.341Z,39.52
2018-08-03T12:40:01.337Z,40.25
2018-08-03T12:41:01.332Z,40.58
2018-08-03T12:42:01.331Z,40.19
2018-08-03T12:43:01.301Z,39.36
2018-08-03T12:44:01.296Z,38.34
2018-08-03T12:45:01.310Z,37.40
2018-08-03T12:46:01.346Z,37.03
2018-08-03T12:47:01.266Z,36.73
2018-08-03T12:48:01.254Z,36.56
2018-08-03T12:49:01.243Z,36.29
2018-08-03T12:50:01.255Z,36.32
2018-08-03T12:51:01.223Z,36.50
2018-08-03T12:52:01.244Z,36.64
2018-08-03T12:53:01.286Z,36.76
2018-08-03T12:54:01.194Z,36.80
2018-08-03T12:55:01.184Z,36.75
2018-08-03T12:56:01.181Z,36.93
2018-08-03T12:57:01.198Z,36.88
2018-08-03T12:58:01.153Z,36.90
2018-08-03T12:59:01.145Z,36.98
2018-08-03T13:00:01.131Z,36.83
2018-08-03T13:01:01.125Z,36.41
2018-08-03T13:02:01.236Z,36.39
2018-08-03T13:03:01.103Z,36.53
2018-08-03T13:04:01.097Z,36.57
2018-08-03T13:05:01.091Z,36.64
2018-08-03T13:06:01.078Z,36.56
2018-08-03T13:07:01.091Z,36.81
2018-08-03T13:08:01.313Z,36.98
2018-08-03T13:09:01.049Z,37.07
2018-08-03T13:10:01.043Z,37.13
2018-08-03T13:11:01.072Z,37.22
2018-08-03T13:12:01.084Z,37.28
2018-08-03T13:13:01.048Z,37.29
2018-08-03T13:14:01.051Z,37.51
2018-08-03T13:15:01.184Z,38.03
2018-08-03T13:16:01.080Z,38.87
2018-08-03T13:17:01.056Z,39.40
2018-08-03T13:18:01.071Z,40.38
2018-08-03T13:19:01.048Z,40.96
2018-08-03T13:20:01.063Z,41.63
2018-08-03T13:21:01.052Z,41.13
2018-08-03T13:22:00.960Z,41.47
2018-08-03T13:23:00.952Z,41.96
2018-08-03T13:24:00.963Z,41.82
2018-08-03T13:25:01.057Z,41.80
2018-08-03T13:26:00.942Z,41.82
2018-08-03T13:27:00.915Z,41.82
2018-08-03T13:28:00.947Z,41.69
2018-08-03T13:29:00.911Z,41.58
2018-08-03T13:30:00.897Z,41.41
2018-08-03T13:31:01.112Z,41.57
2018-08-03T13:32:00.903Z,41.58
2018-08-03T13:33:00.899Z,41.80
2018-08-03T13:34:00.884Z,41.54
2018-08-03T13:35:00.876Z,41.45
2018-08-03T13:36:00.822Z,40.92
2018-08-03T13:37:00.970Z,40.50
2018-08-03T13:38:01.182Z,40.22
2018-08-03T13:39:00.830Z,39.79
2018-08-03T13:40:00.782Z,39.40
2018-08-03T14:07:27.080Z,46.33
2018-08-03T14:08:27.046Z,46.42
2018-08-03T14:09:27.044Z,46.74
2018-08-03T14:10:27.056Z,46.66
2018-08-03T14:11:27.024Z,46.74
2018-08-03T14:12:27.021Z,46.68
2018-08-03T14:13:27.045Z,46.80
2018-08-03T14:14:27.006Z,46.93
2018-08-03T14:15:27.067Z,46.58
2018-08-03T14:16:27.001Z,45.64
2018-08-03T14:17:26.992Z,44.56
2018-08-03T14:18:27.012Z,43.69
2018-08-03T14:19:26.971Z,44.26
2018-08-03T14:20:26.966Z,44.53
2018-08-03T14:21:26.955Z,44.83
2018-08-03T14:22:27.023Z,44.95
2018-08-03T14:23:26.970Z,44.80
2018-08-03T14:24:26.937Z,45.38
2018-08-03T14:25:26.964Z,45.98
2018-08-03T14:26:26.921Z,45.99
2018-08-03T14:27:26.915Z,44.68
2018-08-03T14:28:26.943Z,42.86
2018-08-03T14:29:26.905Z,41.78
2018-08-03T14:30:26.903Z,41.30
2018-08-03T14:31:26.928Z,40.92
2018-08-03T14:32:26.876Z,40.96
2018-08-03T14:33:26.893Z,41.48
2018-08-03T14:34:26.860Z,42.30
2018-08-03T14:35:26.851Z,42.57
2018-08-03T14:36:26.843Z,42.28
2018-08-03T14:37:26.836Z,41.48
2018-08-03T14:38:27.955Z,40.98
2018-08-03T14:39:26.818Z,40.61
2018-08-03T14:40:26.822Z,40.45
2018-08-03T14:41:26.802Z,39.55
2018-08-03T14:42:26.792Z,39.14
2018-08-03T14:43:26.797Z,38.28
2018-08-03T14:44:26.799Z,37.59
2018-08-03T14:45:26.762Z,37.15
2018-08-03T14:46:26.753Z,36.73
2018-08-03T14:47:26.751Z,36.69
2018-08-03T14:48:26.738Z,36.88
2018-08-03T14:49:26.751Z,37.05
2018-08-03T14:50:26.956Z,36.65
2018-08-03T14:51:26.815Z,36.23
2018-08-03T14:52:26.733Z,35.93
2018-08-03T14:53:26.687Z,36.01
2018-08-03T14:54:26.677Z,36.20
2018-08-03T14:55:26.668Z,36.38
2018-08-03T14:56:26.656Z,36.28
2018-08-03T14:57:26.673Z,36.20
2018-08-03T14:58:26.636Z,36.00
2018-08-03T14:59:26.628Z,35.92
2018-08-03T15:00:26.618Z,36.23
2018-08-03T15:01:26.608Z,36.54
2018-08-03T15:02:26.626Z,36.88
2018-08-03T15:03:26.590Z,36.49
2018-08-03T15:04:26.580Z,36.39
2018-08-03T15:05:26.569Z,36.28
2018-08-03T15:06:26.559Z,36.38
2018-08-03T15:07:26.572Z,36.75
2018-08-03T15:08:26.540Z,36.95
2018-08-03T15:09:26.529Z,37.21
2018-08-03T15:10:26.530Z,37.64
2018-08-03T15:11:26.533Z,37.96
2018-08-03T15:12:26.506Z,38.13
2018-08-03T15:13:26.492Z,38.23
2018-08-03T15:14:26.512Z,38.07
2018-08-03T15:15:26.472Z,37.63
2018-08-03T15:16:26.490Z,37.41
2018-08-03T15:17:26.452Z,37.40
2018-08-03T15:18:26.478Z,37.31
2018-08-03T15:19:26.631Z,37.44
2018-08-03T15:20:26.425Z,37.32
2018-08-03T15:21:26.415Z,37.22
2018-08-03T15:22:26.413Z,36.65
2018-08-03T15:23:26.420Z,36.68
2018-08-03T15:24:26.388Z,36.69
2018-08-03T15:25:26.407Z,36.80
2018-08-03T15:26:26.365Z,36.75
2018-08-03T15:27:26.356Z,36.78
2018-08-03T15:28:26.347Z,36.78
2018-08-03T15:29:26.337Z,36.98
2018-08-03T15:30:26.351Z,37.02
2018-08-03T15:31:26.314Z,36.73
2018-08-03T15:32:26.308Z,36.68
2018-08-03T15:33:26.332Z,36.78
2018-08-03T15:34:26.287Z,36.72
2018-08-03T15:35:26.275Z,36.66
2018-08-03T15:36:26.268Z,36.60
2018-08-03T15:37:26.254Z,36.64
2018-08-03T15:38:26.274Z,36.44
2018-08-03T15:39:26.240Z,36.15
2018-08-03T15:40:26.226Z,36.29
2018-08-03T15:41:26.294Z,36.47
2018-08-03T15:42:26.204Z,36.47
2018-08-03T15:43:26.228Z,36.16
2018-08-03T15:44:26.192Z,36.22
2018-08-03T15:45:26.178Z,36.34
2018-08-03T15:46:26.165Z,36.43
2018-08-03T15:47:26.174Z,36.41
2018-08-03T15:48:26.171Z,36.64
2018-08-03T15:49:26.137Z,36.62
2018-08-03T15:50:26.161Z,36.43
2018-08-03T15:51:26.120Z,36.31
2018-08-03T15:52:26.105Z,36.39
2018-08-03T15:53:26.101Z,36.66
2018-08-03T15:54:26.086Z,36.59
2018-08-03T15:55:26.102Z,36.29
2018-08-03T15:56:26.069Z,35.93
2018-08-03T15:57:26.059Z,35.82
2018-08-03T15:58:26.048Z,36.03
2018-08-03T15:59:26.070Z,35.87
2018-08-03T16:00:26.026Z,35.82
2018-08-03T16:01:26.018Z,35.84
2018-08-03T16:02:26.040Z,35.82
2018-08-03T16:03:25.998Z,35.93
2018-08-03T16:04:25.986Z,36.00
2018-08-03T16:05:25.976Z,35.97
2018-08-03T16:06:25.972Z,36.05
2018-08-03T16:07:25.990Z,36.01
2018-08-03T16:08:25.947Z,35.82
2018-08-03T16:09:25.947Z,35.77
2018-08-03T16:10:25.934Z,35.62
2018-08-03T16:11:25.924Z,35.66
2018-08-03T16:12:25.939Z,35.87
2018-08-03T16:13:25.897Z,35.97
2018-08-03T16:14:25.890Z,36.05
2018-08-03T16:15:25.880Z,36.12
2018-08-03T16:16:25.867Z,35.96
2018-08-03T16:17:25.900Z,35.81
2018-08-03T16:18:25.848Z,35.68
2018-08-03T16:19:25.837Z,35.72
2018-08-03T16:20:25.832Z,35.85
2018-08-03T16:21:25.820Z,35.82
2018-08-03T16:22:25.843Z,35.78
2018-08-03T16:23:25.803Z,35.72
2018-08-03T16:24:25.787Z,35.80
2018-08-03T16:25:25.781Z,35.70
2018-08-03T16:26:25.771Z,35.68
2018-08-03T16:27:25.782Z,35.55
2018-08-03T16:28:25.747Z,35.48
2018-08-03T16:29:25.761Z,35.26
2018-08-03T16:30:25.726Z,35.26
2018-08-03T16:31:25.714Z,35.10
2018-08-03T16:32:25.727Z,35.10
2018-08-03T16:33:25.693Z,34.99
2018-08-03T16:34:25.706Z,34.97
2018-08-03T16:35:25.672Z,34.87
2018-08-03T16:36:25.665Z,34.87
2018-08-03T16:37:25.660Z,34.87
2018-08-03T16:38:25.677Z,34.80
2018-08-03T16:39:25.631Z,34.69
2018-08-03T16:40:25.622Z,34.43
2018-08-03T16:41:25.610Z,34.13
2018-08-03T16:42:25.634Z,34.15
2018-08-03T16:43:25.590Z,34.25
2018-08-03T16:44:25.582Z,34.32
2018-08-03T16:45:25.570Z,34.32
2018-08-03T16:46:25.564Z,34.22
2018-08-03T16:47:25.688Z,34.05
2018-08-03T16:48:25.561Z,33.68
2018-08-03T16:49:25.538Z,33.69
2018-08-03T16:50:25.521Z,33.59
2018-08-03T16:51:25.509Z,33.56
2018-08-03T16:52:25.537Z,33.53
2018-08-03T16:53:25.506Z,33.61
2018-08-03T16:54:25.480Z,33.57
2018-08-03T16:55:25.468Z,33.47
2018-08-03T16:56:25.459Z,33.26
2018-08-03T16:57:25.470Z,33.16
2018-08-03T16:58:25.443Z,33.14
2018-08-03T16:59:25.440Z,33.12
2018-08-03T17:00:25.416Z,33.09
2018-08-03T17:01:25.440Z,33.06
2018-08-03T17:02:25.396Z,32.92
2018-08-03T17:03:25.384Z,32.88
2018-08-03T17:04:25.375Z,32.96
2018-08-03T17:05:25.365Z,32.88
2018-08-03T17:06:25.381Z,32.81
2018-08-03T17:07:25.346Z,32.79
2018-08-03T17:08:25.359Z,32.70
2018-08-03T17:09:25.326Z,32.69
2018-08-03T17:10:25.333Z,32.77
2018-08-03T17:11:25.304Z,32.74
2018-08-03T17:12:25.295Z,32.65
2018-08-03T17:13:25.308Z,32.52
2018-08-03T17:14:25.290Z,32.52
2018-08-03T17:15:25.266Z,32.45
2018-08-03T17:16:25.252Z,32.48
2018-08-03T17:17:25.244Z,32.56
2018-08-03T17:18:25.259Z,32.45
2018-08-03T17:19:25.221Z,32.48
2018-08-03T17:20:25.209Z,32.47
2018-08-03T17:21:25.200Z,32.41
2018-08-03T17:22:25.191Z,32.33
2018-08-03T17:23:25.204Z,32.22
2018-08-03T17:24:25.170Z,32.32
2018-08-03T17:25:25.159Z,32.26
2018-08-03T17:26:25.148Z,32.19
2018-08-03T17:27:25.138Z,32.11
2018-08-03T17:28:25.163Z,32.04
2018-08-03T17:29:25.120Z,31.99
2018-08-03T17:30:25.105Z,31.96
2018-08-03T17:31:25.095Z,31.93
2018-08-03T17:32:25.089Z,31.89
2018-08-03T17:33:25.111Z,31.85
2018-08-03T17:34:25.064Z,31.81
2018-08-03T17:35:25.053Z,31.81
2018-08-03T17:36:25.046Z,31.86
2018-08-03T17:37:25.034Z,31.75
2018-08-03T17:38:25.047Z,31.72
2018-08-03T17:39:25.012Z,31.76
2018-08-03T17:40:25.003Z,31.72
2018-08-03T17:41:24.992Z,31.61
2018-08-03T17:42:25.052Z,31.57
2018-08-03T17:43:24.995Z,31.57
2018-08-03T17:44:24.977Z,31.44
2018-08-03T17:45:24.958Z,31.44
2018-08-03T17:46:24.939Z,31.43
2018-08-03T17:47:24.928Z,31.35
2018-08-03T17:48:24.922Z,31.31
2018-08-03T17:49:24.942Z,31.32
2018-08-03T17:50:24.909Z,31.32
2018-08-03T17:51:24.888Z,31.25
2018-08-03T17:52:24.874Z,31.25
2018-08-03T17:53:24.864Z,31.17
2018-08-03T17:54:24.879Z,31.14
2018-08-03T17:55:24.842Z,31.14
2018-08-03T17:56:24.863Z,31.21
2018-08-03T17:57:24.851Z,31.20
2018-08-03T17:58:24.812Z,31.10
2018-08-03T17:59:24.803Z,31.07
2018-08-03T18:00:24.792Z,31.02
2018-08-03T18:01:24.782Z,30.98
2018-08-03T18:02:24.790Z,30.95
2018-08-03T18:03:24.760Z,30.86
2018-08-03T18:04:24.746Z,30.80
2018-08-03T18:05:24.738Z,30.69
2018-08-03T18:06:24.726Z,30.70
2018-08-03T18:07:24.738Z,30.57
2018-08-03T18:08:24.706Z,30.54
2018-08-03T18:09:24.748Z,30.45
2018-08-03T18:10:24.684Z,30.31
2018-08-03T18:11:24.671Z,30.24
2018-08-03T18:12:24.693Z,30.29
2018-08-03T18:13:24.687Z,30.20
2018-08-03T18:14:24.642Z,30.08
2018-08-03T18:15:24.633Z,30.13
2018-08-03T18:16:24.618Z,30.10
2018-08-03T18:17:24.610Z,29.92
2018-08-03T18:18:24.624Z,29.94
2018-08-03T18:19:24.587Z,29.90
2018-08-03T18:20:24.580Z,29.82
2018-08-03T18:21:24.568Z,29.82
2018-08-03T18:22:24.557Z,29.78
2018-08-03T18:23:24.582Z,29.79
2018-08-03T18:24:24.536Z,29.70
2018-08-03T18:25:24.524Z,29.65
2018-08-03T18:26:24.517Z,29.51
2018-08-03T18:27:24.507Z,29.60
2018-08-03T18:28:24.522Z,29.51
2018-08-03T18:29:24.488Z,29.45
2018-08-03T18:30:24.476Z,29.39
2018-08-03T18:31:24.527Z,29.34
2018-08-03T18:32:24.455Z,29.33
2018-08-03T18:33:24.475Z,29.16
2018-08-03T18:34:24.436Z,29.18
2018-08-03T18:35:24.422Z,29.16
2018-08-03T18:36:24.408Z,29.05
2018-08-03T18:37:24.398Z,28.93
2018-08-03T18:38:24.423Z,29.00
2018-08-03T18:39:24.379Z,28.88
2018-08-03T18:40:24.371Z,28.95
2018-08-03T18:41:24.354Z,28.90
2018-08-03T18:42:24.344Z,28.77
2018-08-03T18:43:24.364Z,28.78
2018-08-03T18:44:24.326Z,28.67
2018-08-03T18:45:24.348Z,28.61
2018-08-03T18:46:24.307Z,28.56
2018-08-03T18:47:24.302Z,28.56
2018-08-03T18:48:24.282Z,28.58
2018-08-03T18:49:24.273Z,28.56
2018-08-03T18:50:24.383Z,28.41
2018-08-03T18:51:24.250Z,28.48
2018-08-03T18:52:24.237Z,28.31
2018-08-03T18:53:24.228Z,28.29
2018-08-03T18:54:24.217Z,28.24
2018-08-03T18:55:24.254Z,28.17
2018-08-03T18:56:24.197Z,28.17
2018-08-03T18:57:24.188Z,28.06
2018-08-03T18:58:24.175Z,28.06
2018-08-03T18:59:24.163Z,28.06
2018-08-03T19:00:24.176Z,28.00
2018-08-03T19:01:24.142Z,27.96
2018-08-03T19:02:24.133Z,27.97
2018-08-03T19:03:24.130Z,27.96
2018-08-03T19:04:24.108Z,27.90
2018-08-03T19:05:24.124Z,27.84
2018-08-03T19:06:24.113Z,27.87
2018-08-03T19:07:24.078Z,27.82
2018-08-03T19:08:24.068Z,27.74
2018-08-03T19:09:24.055Z,27.79
2018-08-03T19:10:24.046Z,27.63
2018-08-03T19:11:24.060Z,27.78
2018-08-03T19:12:24.030Z,27.62
2018-08-03T19:13:24.038Z,27.60
2018-08-03T19:14:24.001Z,27.65
2018-08-03T19:15:24.047Z,27.57
2018-08-03T19:16:23.982Z,27.55
2018-08-03T19:17:23.974Z,27.54
2018-08-03T19:18:23.965Z,27.49
2018-08-03T19:19:23.950Z,27.39
2018-08-03T19:20:23.961Z,27.28
2018-08-03T19:21:23.931Z,27.25
2018-08-03T19:22:23.921Z,27.31
2018-08-03T19:23:23.915Z,27.29
2018-08-03T19:24:23.896Z,27.18
2018-08-03T19:25:23.911Z,27.34
2018-08-03T19:26:23.874Z,27.32
2018-08-03T19:27:23.865Z,27.27
2018-08-03T19:28:23.858Z,27.21
2018-08-03T19:29:23.842Z,27.19
2018-08-03T19:30:23.872Z,27.18
2018-08-03T19:31:23.822Z,27.25
2018-08-03T19:32:23.812Z,27.34
2018-08-03T19:33:23.833Z,27.31
2018-08-03T19:34:23.791Z,27.24
2018-08-03T19:35:23.782Z,27.22
2018-08-03T19:36:23.774Z,27.19
2018-08-03T19:37:23.761Z,27.25
2018-08-03T19:38:23.784Z,27.28
2018-08-03T19:39:23.747Z,27.21
2018-08-03T19:40:24.451Z,27.24
2018-08-03T19:41:24.314Z,27.21
2018-08-03T19:42:23.704Z,27.24
2018-08-03T19:43:23.717Z,27.19
2018-08-03T19:44:23.683Z,27.21
2018-08-03T19:45:23.692Z,27.24
2018-08-03T19:46:23.661Z,27.14
2018-08-03T19:47:23.651Z,27.25
2018-08-03T19:48:23.665Z,27.24
2018-08-03T19:49:23.635Z,27.18
2018-08-03T19:50:23.617Z,27.12
2018-08-03T19:51:23.618Z,27.10
2018-08-03T19:52:23.600Z,27.18
2018-08-03T19:53:23.626Z,27.12
2018-08-03T19:54:23.609Z,27.06
2018-08-03T19:55:23.575Z,27.06
2018-08-03T19:56:24.473Z,27.06
2018-08-03T19:57:23.545Z,27.04
2018-08-03T19:58:23.596Z,27.00
2018-08-03T19:59:24.071Z,26.99
2018-08-03T20:00:23.511Z,26.95
2018-08-03T20:01:23.501Z,26.91
2018-08-03T20:02:23.496Z,26.81
2018-08-03T20:03:23.479Z,26.85
2018-08-03T20:04:23.507Z,26.82
2018-08-03T20:05:23.464Z,26.80
2018-08-03T20:06:23.447Z,26.84
2018-08-03T20:07:23.439Z,26.80
2018-08-03T20:08:23.430Z,26.82
2018-08-03T20:09:23.443Z,26.76
2018-08-03T20:10:23.431Z,26.76
2018-08-03T20:11:23.392Z,26.70
2018-08-03T20:12:23.386Z,26.62
2018-08-03T20:13:23.395Z,26.60
2018-08-03T20:14:23.362Z,26.51
2018-08-03T20:15:23.442Z,26.55
2018-08-03T20:16:23.367Z,26.45
2018-08-03T20:17:23.329Z,26.45
2018-08-03T20:18:23.321Z,26.45
2018-08-03T20:19:23.308Z,26.40
2018-08-03T20:20:23.298Z,26.30
2018-08-03T20:21:23.310Z,26.28
2018-08-03T20:22:23.273Z,26.29
2018-08-03T20:23:23.264Z,26.26
2018-08-03T20:24:23.290Z,26.25
2018-08-03T20:25:23.289Z,26.23
2018-08-03T20:26:23.274Z,26.28
2018-08-03T20:27:23.300Z,26.17
2018-08-03T20:28:23.330Z,26.07
2018-08-03T20:29:23.325Z,26.10
2018-08-03T20:30:25.995Z,26.06
2018-08-03T20:31:23.200Z,26.09
2018-08-03T20:32:23.187Z,25.99
2018-08-03T20:33:23.199Z,25.91
2018-08-03T20:34:23.277Z,25.90
2018-08-03T20:35:23.284Z,25.87
2018-08-03T20:36:23.481Z,25.87
2018-08-03T20:37:23.118Z,25.83
2018-08-03T20:38:23.149Z,25.76
2018-08-03T20:39:23.117Z,25.69
2018-08-03T20:40:23.114Z,25.64
2018-08-03T20:41:23.089Z,25.54
2018-08-03T20:42:23.071Z,25.51
2018-08-03T20:43:23.132Z,25.52
2018-08-03T20:44:23.087Z,25.52
2018-08-03T20:45:23.057Z,25.46
2018-08-03T20:46:23.488Z,25.33
2018-08-03T20:47:23.991Z,25.33
2018-08-03T20:48:23.069Z,25.32
2018-08-03T20:49:23.012Z,25.38
2018-08-03T20:50:23.041Z,25.23
2018-08-03T20:51:22.997Z,25.23
2018-08-03T20:52:22.967Z,25.17
2018-08-03T20:53:22.956Z,25.17
2018-08-03T20:54:22.979Z,25.05
2018-08-03T20:55:23.047Z,25.09
2018-08-03T20:56:22.921Z,25.02
2018-08-03T20:57:22.907Z,24.96
2018-08-03T20:58:22.965Z,24.88
2018-08-03T20:59:22.967Z,24.91
2018-08-03T21:00:22.895Z,24.87
2018-08-03T21:01:22.853Z,24.93
2018-08-03T21:02:22.875Z,24.78
2018-08-03T21:03:22.831Z,24.69
2018-08-03T21:04:22.879Z,24.64
2018-08-03T21:05:22.829Z,24.71
2018-08-03T21:06:22.810Z,24.67
2018-08-03T21:07:22.802Z,24.58
2018-08-03T21:08:22.784Z,24.55
2018-08-03T21:09:22.819Z,24.57
2018-08-03T21:10:22.756Z,24.55
2018-08-03T21:11:22.782Z,24.57
2018-08-03T21:12:22.753Z,24.47
2018-08-03T21:13:22.755Z,24.47
2018-08-03T21:14:22.723Z,24.42
2018-08-03T21:15:22.711Z,24.47
2018-08-03T21:16:22.696Z,24.43
2018-08-03T21:17:22.688Z,24.42
2018-08-03T21:18:22.705Z,24.40
2018-08-03T21:19:22.671Z,24.37
2018-08-03T21:20:22.679Z,24.31
2018-08-03T21:21:22.641Z,24.35
2018-08-03T21:22:22.665Z,24.28
2018-08-03T21:23:22.629Z,24.32
2018-08-03T21:24:22.610Z,24.28
2018-08-03T21:25:22.651Z,24.18
2018-08-03T21:26:22.595Z,24.30
2018-08-03T21:27:22.572Z,24.28
2018-08-03T21:28:22.567Z,24.16
